createdAt,value
2017-12-27T00:01:51.143Z,5.03
2017-12-27T00:04:19.891Z,8.33
2017-12-27T00:06:47.691Z,8.13
2017-12-27T00:09:16.152Z,6.40
2017-12-27T00:11:44.592Z,3.50
2017-12-27T00:14:13.276Z,5.87
2017-12-27T00:16:41.896Z,4.40
2017-12-27T00:19:09.732Z,3.80
2017-12-27T00:21:37.710Z,6.33
2017-12-27T00:24:05.409Z,5.40
2017-12-27T00:26:33.421Z,7.10
2017-12-27T00:29:01.151Z,3.80
2017-12-27T00:34:02.945Z,3.50
2017-12-27T00:36:31.367Z,4.10
2017-12-27T00:38:59.442Z,8.17
2017-12-27T00:41:27.408Z,7.50
2017-12-27T00:43:56.511Z,4.00
2017-12-27T00:46:25.199Z,5.17
2017-12-27T00:48:53.064Z,3.03
2017-12-27T00:51:21.047Z,6.63
2017-12-27T00:53:50.116Z,7.07
2017-12-27T00:56:19.157Z,4.03
2017-12-27T00:58:48.123Z,5.30
2017-12-27T01:01:16.738Z,7.63
2017-12-27T01:03:46.364Z,5.73
2017-12-27T01:06:14.164Z,6.23
2017-12-27T01:08:41.836Z,6.20
2017-12-27T01:11:11.196Z,4.53
2017-12-27T01:13:39.449Z,5.90
2017-12-27T01:16:07.667Z,6.47
2017-12-27T01:18:35.695Z,4.57
2017-12-27T01:21:04.380Z,5.10
2017-12-27T01:23:32.896Z,4.23
2017-12-27T01:26:00.596Z,2.30
2017-12-27T01:28:29.043Z,3.50
2017-12-27T01:30:56.761Z,3.90
2017-12-27T01:33:25.372Z,2.50
2017-12-27T01:35:53.166Z,6.60
2017-12-27T01:38:20.858Z,3.27
2017-12-27T01:40:49.276Z,5.70
2017-12-27T01:43:16.930Z,4.40
2017-12-27T01:45:44.675Z,4.47
2017-12-27T01:48:13.155Z,5.23
2017-12-27T01:50:41.588Z,4.60
2017-12-27T01:53:09.286Z,5.40
2017-12-27T01:55:36.981Z,4.30
2017-12-27T01:58:04.895Z,3.33
2017-12-27T02:00:32.934Z,3.40
2017-12-27T02:03:00.794Z,3.20
2017-12-27T02:05:29.345Z,5.70
2017-12-27T02:07:57.286Z,2.80
2017-12-27T02:10:25.323Z,3.23
2017-12-27T02:12:54.326Z,6.37
2017-12-27T02:15:23.216Z,5.30
2017-12-27T02:17:51.712Z,5.73
2017-12-27T02:20:19.358Z,4.57
2017-12-27T02:22:47.168Z,2.97
2017-12-27T02:25:14.871Z,2.90
2017-12-27T02:27:43.313Z,4.30
2017-12-27T02:30:11.254Z,2.30
2017-12-27T02:32:40.249Z,2.67
2017-12-27T02:35:07.904Z,4.70
2017-12-27T02:37:35.584Z,3.23
2017-12-27T02:40:03.254Z,4.83
2017-12-27T02:42:31.207Z,8.23
2017-12-27T02:44:58.963Z,2.93
2017-12-27T02:47:26.951Z,2.80
2017-12-27T02:49:55.608Z,2.70
2017-12-27T02:52:23.337Z,3.90
2017-12-27T02:54:51.362Z,3.83
2017-12-27T02:57:19.033Z,2.80
2017-12-27T02:59:47.049Z,3.07
2017-12-27T03:02:14.947Z,3.70
2017-12-27T03:04:43.381Z,2.60
2017-12-27T03:07:11.861Z,2.73
2017-12-27T03:09:39.619Z,7.00
2017-12-27T03:12:07.386Z,4.70
2017-12-27T03:14:35.058Z,5.17
2017-12-27T03:17:02.708Z,5.60
2017-12-27T03:19:30.764Z,2.57
2017-12-27T03:21:59.333Z,2.57
2017-12-27T03:24:28.268Z,3.33
2017-12-27T03:26:56.318Z,5.03
2017-12-27T03:29:25.210Z,2.27
2017-12-27T03:31:53.280Z,2.67
2017-12-27T03:34:22.933Z,3.30
2017-12-27T03:36:50.588Z,2.60
2017-12-27T03:39:18.542Z,3.00
2017-12-27T03:41:47.849Z,6.80
2017-12-27T03:44:15.816Z,3.90
2017-12-27T03:46:44.365Z,2.90
2017-12-27T03:49:13.228Z,3.27
2017-12-27T03:51:40.874Z,2.97
2017-12-27T03:54:08.616Z,3.40
2017-12-27T03:56:36.679Z,3.40
2017-12-27T03:59:05.158Z,3.03
2017-12-27T04:01:32.899Z,4.07
2017-12-27T04:04:01.293Z,3.23
2017-12-27T04:06:29.735Z,4.30
2017-12-27T04:08:57.347Z,2.70
2017-12-27T04:11:25.860Z,4.33
2017-12-27T04:13:53.942Z,3.07
2017-12-27T04:16:21.944Z,2.50
2017-12-27T04:18:50.441Z,4.53
2017-12-27T04:21:19.255Z,5.10
2017-12-27T04:23:46.955Z,2.80
2017-12-27T04:26:14.695Z,3.40
2017-12-27T04:28:42.494Z,3.13
2017-12-27T04:31:11.004Z,3.93
2017-12-27T04:33:39.493Z,2.80
2017-12-27T04:36:07.230Z,3.07
2017-12-27T04:38:35.165Z,3.53
2017-12-27T04:41:03.644Z,2.40
2017-12-27T04:43:31.506Z,2.73
2017-12-27T04:46:00.076Z,2.50
2017-12-27T04:48:28.617Z,3.53
2017-12-27T04:50:56.328Z,3.13
2017-12-27T04:53:25.029Z,3.37
2017-12-27T04:55:52.794Z,4.07
2017-12-27T04:58:20.507Z,3.03
2017-12-27T05:00:48.178Z,2.97
2017-12-27T05:03:15.841Z,3.20
2017-12-27T05:05:43.456Z,3.30
2017-12-27T05:08:11.224Z,3.17
2017-12-27T05:10:40.215Z,3.00
2017-12-27T05:13:09.126Z,3.37
2017-12-27T05:15:36.830Z,2.90
2017-12-27T05:18:04.447Z,2.57
2017-12-27T05:20:32.407Z,3.30
2017-12-27T05:23:00.270Z,2.60
2017-12-27T05:25:28.257Z,3.03
2017-12-27T05:27:56.004Z,3.00
2017-12-27T05:30:23.712Z,2.70
2017-12-27T05:32:51.559Z,3.83
2017-12-27T05:35:19.347Z,4.73
2017-12-27T05:37:46.980Z,6.63
2017-12-27T05:40:14.632Z,3.70
2017-12-27T05:42:42.609Z,2.93
2017-12-27T05:45:11.087Z,4.70
2017-12-27T05:47:38.850Z,3.40
2017-12-27T05:50:06.953Z,2.47
2017-12-27T05:52:35.500Z,4.30
2017-12-27T05:55:03.956Z,4.67
2017-12-27T05:57:31.975Z,3.13
2017-12-27T06:00:00.861Z,4.07
2017-12-27T06:02:28.588Z,3.20
2017-12-27T06:04:56.245Z,3.17
2017-12-27T06:07:23.878Z,2.67
2017-12-27T06:09:51.947Z,6.73
2017-12-27T06:12:20.621Z,3.03
2017-12-27T06:14:48.689Z,3.33
2017-12-27T06:17:17.269Z,6.07
2017-12-27T06:19:45.035Z,5.20
2017-12-27T06:22:12.689Z,3.70
2017-12-27T06:24:41.115Z,4.03
2017-12-27T06:27:08.749Z,3.00
2017-12-27T06:29:36.720Z,3.43
2017-12-27T06:32:05.285Z,4.93
2017-12-27T06:34:34.098Z,3.80
2017-12-27T06:37:01.836Z,5.40
2017-12-27T06:39:30.550Z,3.00
2017-12-27T06:41:58.646Z,3.00
2017-12-27T06:44:26.363Z,4.27
2017-12-27T06:46:55.090Z,6.43
2017-12-27T06:49:23.046Z,5.20
2017-12-27T06:51:50.706Z,6.33
2017-12-27T06:54:19.605Z,7.97
2017-12-27T06:56:47.256Z,4.10
2017-12-27T06:59:15.716Z,3.20
2017-12-27T07:01:43.368Z,4.00
2017-12-27T07:04:11.383Z,4.90
2017-12-27T07:06:39.037Z,3.20
2017-12-27T07:09:07.560Z,3.90
2017-12-27T07:11:35.609Z,4.17
2017-12-27T07:14:03.483Z,3.20
2017-12-27T07:16:31.204Z,3.47
2017-12-27T07:18:58.924Z,5.80
2017-12-27T07:21:26.694Z,5.50
2017-12-27T07:23:54.374Z,4.03
2017-12-27T07:26:22.058Z,3.07
2017-12-27T07:28:49.979Z,3.30
2017-12-27T07:31:17.641Z,3.53
2017-12-27T07:33:45.279Z,3.40
2017-12-27T07:36:14.098Z,4.57
2017-12-27T07:38:42.577Z,4.23
2017-12-27T07:41:10.642Z,6.00
2017-12-27T07:43:39.169Z,3.93
2017-12-27T07:46:07.110Z,2.93
2017-12-27T07:48:34.963Z,4.27
2017-12-27T07:51:03.420Z,3.60
2017-12-27T07:53:31.819Z,3.00
2017-12-27T07:56:00.518Z,3.03
2017-12-27T07:58:29.211Z,3.30
2017-12-27T08:00:56.966Z,7.50
2017-12-27T08:03:24.596Z,3.20
2017-12-27T08:05:52.278Z,3.40
2017-12-27T08:08:20.678Z,3.33
2017-12-27T08:10:48.312Z,3.13
2017-12-27T08:13:16.045Z,3.03
2017-12-27T08:15:43.637Z,3.43
2017-12-27T08:18:11.323Z,4.67
2017-12-27T08:20:39.306Z,3.57
2017-12-27T08:23:08.092Z,4.67
2017-12-27T08:25:36.587Z,4.20
2017-12-27T08:28:04.221Z,5.43
2017-12-27T08:30:32.616Z,4.20
2017-12-27T08:33:01.048Z,5.50
2017-12-27T08:35:28.724Z,3.60
2017-12-27T08:37:56.408Z,4.57
2017-12-27T08:40:25.121Z,4.30
2017-12-27T08:42:52.762Z,3.37
2017-12-27T08:45:21.222Z,4.23
2017-12-27T08:47:48.903Z,2.80
2017-12-27T08:50:16.799Z,2.70
2017-12-27T08:52:45.539Z,5.53
2017-12-27T08:55:13.405Z,3.07
2017-12-27T08:57:41.037Z,3.63
2017-12-27T09:00:08.727Z,4.13
2017-12-27T09:02:36.762Z,3.50
2017-12-27T09:05:04.400Z,5.20
2017-12-27T09:07:32.050Z,3.67
2017-12-27T09:09:59.750Z,4.17
2017-12-27T09:12:27.354Z,2.80
2017-12-27T09:14:55.208Z,3.50
2017-12-27T09:17:22.858Z,3.00
2017-12-27T09:19:50.496Z,3.07
2017-12-27T09:22:19.036Z,3.83
2017-12-27T09:24:46.693Z,2.47
2017-12-27T09:27:14.651Z,5.67
2017-12-27T09:29:43.162Z,3.90
2017-12-27T09:32:10.878Z,2.67
2017-12-27T09:34:38.600Z,3.73
2017-12-27T09:37:07.222Z,3.47
2017-12-27T09:39:34.963Z,3.67
2017-12-27T09:42:03.432Z,5.00
2017-12-27T09:44:31.081Z,7.93
2017-12-27T09:46:59.130Z,102.57
2017-12-27T09:49:26.786Z,35.87
2017-12-27T09:51:54.546Z,94.13
2017-12-27T09:54:22.247Z,108.00
2017-12-27T09:56:49.959Z,92.93
2017-12-27T09:59:17.687Z,90.80
2017-12-27T10:01:45.519Z,86.57
2017-12-27T10:04:14.032Z,88.80
2017-12-27T10:06:41.830Z,83.90
2017-12-27T10:09:10.560Z,83.13
2017-12-27T10:11:38.832Z,71.93
2017-12-27T10:14:06.791Z,71.17
2017-12-27T10:16:34.521Z,67.57
2017-12-27T10:19:03.458Z,53.90
2017-12-27T10:21:32.296Z,49.07
2017-12-27T10:24:00.790Z,46.60
2017-12-27T10:26:28.594Z,50.67
2017-12-27T10:28:56.221Z,43.63
2017-12-27T10:31:23.970Z,43.70
2017-12-27T10:33:51.695Z,35.47
2017-12-27T10:36:19.486Z,33.93
2017-12-27T10:38:47.330Z,33.13
2017-12-27T10:41:15.051Z,27.83
2017-12-27T10:43:42.962Z,24.63
2017-12-27T10:46:10.618Z,22.47
2017-12-27T10:48:38.320Z,17.93
2017-12-27T10:51:06.043Z,15.63
2017-12-27T10:53:33.736Z,15.93
2017-12-27T10:56:01.445Z,12.43
2017-12-27T10:58:29.092Z,10.07
2017-12-27T11:00:56.793Z,9.20
2017-12-27T11:03:24.435Z,8.17
2017-12-27T11:05:52.065Z,9.53
2017-12-27T11:08:20.104Z,7.70
2017-12-27T11:10:48.569Z,6.40
2017-12-27T11:13:17.283Z,9.67
2017-12-27T11:15:44.918Z,5.13
2017-12-27T11:18:13.730Z,6.80
2017-12-27T11:20:41.370Z,5.77
2017-12-27T11:23:09.898Z,7.53
2017-12-27T11:25:37.584Z,6.27
2017-12-27T11:28:05.238Z,4.43
2017-12-27T11:30:33.286Z,5.53
2017-12-27T11:33:00.944Z,10.57
2017-12-27T11:35:28.614Z,7.13
2017-12-27T11:37:56.244Z,3.43
2017-12-27T11:40:24.821Z,5.03
2017-12-27T11:42:52.524Z,7.73
2017-12-27T11:45:20.129Z,5.57
2017-12-27T11:47:47.780Z,9.03
2017-12-27T11:50:15.718Z,4.63
2017-12-27T11:52:44.717Z,5.27
2017-12-27T11:55:12.352Z,4.50
2017-12-27T11:57:40.830Z,6.17
2017-12-27T12:00:09.286Z,5.53
2017-12-27T12:02:37.017Z,5.33
2017-12-27T12:05:04.796Z,5.03
2017-12-27T12:07:32.474Z,3.73
2017-12-27T12:10:00.200Z,5.70
2017-12-27T12:12:28.687Z,4.80
2017-12-27T12:14:56.653Z,9.70
2017-12-27T12:17:24.313Z,8.30
2017-12-27T12:19:52.759Z,9.47
2017-12-27T12:22:20.467Z,7.87
2017-12-27T12:24:48.129Z,6.40
2017-12-27T12:27:15.999Z,5.07
2017-12-27T12:29:43.973Z,4.33
2017-12-27T12:32:12.145Z,6.53
2017-12-27T12:34:40.684Z,8.27
2017-12-27T12:37:09.075Z,7.60
2017-12-27T12:39:36.737Z,7.00
2017-12-27T12:42:04.493Z,4.60
2017-12-27T12:44:32.422Z,8.07
2017-12-27T12:47:00.278Z,7.70
2017-12-27T12:49:28.033Z,6.07
2017-12-27T12:51:56.734Z,5.20
2017-12-27T12:54:24.465Z,4.20
2017-12-27T12:56:52.478Z,6.40
2017-12-27T12:59:20.484Z,5.93
2017-12-27T13:01:48.182Z,7.57
2017-12-27T13:04:16.999Z,8.67
2017-12-27T13:06:45.595Z,12.67
2017-12-27T13:09:13.762Z,5.80
2017-12-27T13:11:42.247Z,5.10
2017-12-27T13:14:10.106Z,7.63
2017-12-27T13:16:38.639Z,4.57
2017-12-27T13:19:06.307Z,8.67
2017-12-27T13:21:33.934Z,9.13
2017-12-27T13:24:01.567Z,4.83
2017-12-27T13:26:30.060Z,7.00
2017-12-27T13:28:57.758Z,4.90
2017-12-27T13:31:25.459Z,6.20
2017-12-27T13:33:53.263Z,8.50
2017-12-27T13:36:21.803Z,5.70
2017-12-27T13:38:49.506Z,7.90
2017-12-27T13:41:17.208Z,9.70
2017-12-27T13:43:44.857Z,8.50
2017-12-27T13:46:12.821Z,4.13
2017-12-27T13:48:40.580Z,6.27
2017-12-27T13:51:08.279Z,5.63
2017-12-27T13:53:35.978Z,8.33
2017-12-27T13:56:03.985Z,20.47
2017-12-27T13:58:31.674Z,40.40
2017-12-27T14:00:59.351Z,43.97
2017-12-27T14:03:27.278Z,46.10
2017-12-27T14:05:55.845Z,42.40
2017-12-27T14:08:24.311Z,38.33
2017-12-27T14:10:52.007Z,36.47
2017-12-27T14:13:19.630Z,35.20
2017-12-27T14:15:47.550Z,33.27
2017-12-27T14:18:16.330Z,27.60
2017-12-27T14:20:45.247Z,26.40
2017-12-27T14:23:12.940Z,31.23
2017-12-27T14:25:40.813Z,21.10
2017-12-27T14:28:08.949Z,19.80
2017-12-27T14:30:37.506Z,22.90
2017-12-27T14:33:06.115Z,13.43
2017-12-27T14:35:34.672Z,16.90
2017-12-27T14:38:03.592Z,19.17
2017-12-27T14:40:32.477Z,15.87
2017-12-27T14:43:00.375Z,16.80
2017-12-27T14:45:28.278Z,12.57
2017-12-27T14:47:56.747Z,15.63
2017-12-27T14:50:24.399Z,19.00
2017-12-27T14:52:52.116Z,10.73
2017-12-27T14:55:20.212Z,12.10
2017-12-27T14:57:48.785Z,12.43
2017-12-27T15:00:16.563Z,10.40
2017-12-27T15:02:44.316Z,10.93
2017-12-27T15:05:12.315Z,11.67
2017-12-27T15:07:39.973Z,8.63
2017-12-27T15:10:07.701Z,11.20
2017-12-27T15:12:36.537Z,8.40
2017-12-27T15:15:04.190Z,8.13
2017-12-27T15:17:32.245Z,9.53
2017-12-27T15:20:00.217Z,7.33
2017-12-27T15:22:27.876Z,13.30
2017-12-27T15:24:56.364Z,6.63
2017-12-27T15:27:25.735Z,8.17
2017-12-27T15:29:54.563Z,9.43
2017-12-27T15:32:23.351Z,9.53
2017-12-27T15:34:52.241Z,6.17
2017-12-27T15:37:19.942Z,9.40
2017-12-27T15:39:48.080Z,9.07
2017-12-27T15:42:16.968Z,8.30
2017-12-27T15:44:45.523Z,8.57
2017-12-27T15:47:13.312Z,12.53
2017-12-27T15:49:41.021Z,7.03
2017-12-27T15:52:08.958Z,12.53
2017-12-27T15:54:37.431Z,10.27
2017-12-27T15:57:05.930Z,9.33
2017-12-27T15:59:34.009Z,7.63
2017-12-27T16:02:02.474Z,12.20
2017-12-27T16:04:30.857Z,8.20
2017-12-27T16:06:58.508Z,8.77
2017-12-27T16:09:26.933Z,8.67
2017-12-27T16:11:54.594Z,8.70
2017-12-27T16:14:22.211Z,9.93
2017-12-27T16:16:50.618Z,6.93
2017-12-27T16:19:18.254Z,6.83
2017-12-27T16:21:46.777Z,8.80
2017-12-27T16:24:14.549Z,7.23
2017-12-27T16:26:42.194Z,5.63
2017-12-27T16:29:09.853Z,5.17
2017-12-27T16:31:37.772Z,4.40
2017-12-27T16:34:05.483Z,6.73
2017-12-27T16:36:33.149Z,7.77
2017-12-27T16:39:01.568Z,5.67
2017-12-27T16:41:29.211Z,7.53
2017-12-27T16:43:56.914Z,4.20
2017-12-27T16:46:24.616Z,3.93
2017-12-27T16:48:52.530Z,5.57
2017-12-27T16:51:20.244Z,5.90
2017-12-27T16:53:48.706Z,3.73
2017-12-27T16:56:16.819Z,8.63
2017-12-27T16:58:44.482Z,2.43
2017-12-27T17:01:13.019Z,3.93
2017-12-27T17:03:40.653Z,5.57
2017-12-27T17:06:08.702Z,3.40
2017-12-27T17:08:36.673Z,4.10
2017-12-27T17:11:05.222Z,4.03
2017-12-27T17:13:32.939Z,4.63
2017-12-27T17:16:00.617Z,3.30
2017-12-27T17:18:28.279Z,8.13
2017-12-27T17:20:55.955Z,4.80
2017-12-27T17:23:23.700Z,4.53
2017-12-27T17:25:51.656Z,3.80
2017-12-27T17:28:19.299Z,3.50
2017-12-27T17:30:47.743Z,5.33
2017-12-27T17:33:15.794Z,4.50
2017-12-27T17:35:43.591Z,6.47
2017-12-27T17:38:11.245Z,6.30
2017-12-27T17:40:39.283Z,3.00
2017-12-27T17:43:08.166Z,4.57
2017-12-27T17:45:35.873Z,5.17
2017-12-27T17:48:03.498Z,5.03
2017-12-27T17:50:31.125Z,3.40
2017-12-27T17:52:58.846Z,3.63
2017-12-27T17:55:26.553Z,3.03
2017-12-27T17:57:54.207Z,3.97
2017-12-27T18:00:22.327Z,4.33
2017-12-27T18:02:50.814Z,4.33
2017-12-27T18:05:18.479Z,4.67
2017-12-27T18:07:46.123Z,4.20
2017-12-27T18:10:14.825Z,3.50
2017-12-27T18:12:42.538Z,8.43
2017-12-27T18:15:10.248Z,2.90
2017-12-27T18:17:38.941Z,2.10
2017-12-27T18:20:07.731Z,2.90
2017-12-27T18:22:35.604Z,2.50
2017-12-27T18:25:04.116Z,3.23
2017-12-27T18:27:31.767Z,8.30
2017-12-27T18:29:59.480Z,6.70
2017-12-27T18:32:27.442Z,3.17
2017-12-27T18:34:55.312Z,5.07
2017-12-27T18:37:23.025Z,2.97
2017-12-27T18:39:51.585Z,3.70
2017-12-27T18:42:20.117Z,2.80
2017-12-27T18:44:48.158Z,2.83
2017-12-27T18:47:16.623Z,3.70
2017-12-27T18:49:45.255Z,5.33
2017-12-27T18:52:12.973Z,3.30
2017-12-27T18:54:41.787Z,4.50
2017-12-27T18:57:09.470Z,3.10
2017-12-27T18:59:37.343Z,3.80
2017-12-27T19:02:05.047Z,5.83
2017-12-27T19:04:32.781Z,4.47
2017-12-27T19:07:00.666Z,4.10
2017-12-27T19:09:28.590Z,3.67
2017-12-27T19:11:56.218Z,2.80
2017-12-27T19:14:23.888Z,4.07
2017-12-27T19:16:52.475Z,5.50
2017-12-27T19:19:21.299Z,8.57
2017-12-27T19:21:49.830Z,3.07
2017-12-27T19:24:17.502Z,3.20
2017-12-27T19:26:46.064Z,2.43
2017-12-27T19:29:13.729Z,3.53
2017-12-27T19:31:41.398Z,5.90
2017-12-27T19:34:09.043Z,3.83
2017-12-27T19:36:36.746Z,2.63
2017-12-27T19:39:05.314Z,5.10
2017-12-27T19:41:33.812Z,3.57
2017-12-27T19:44:01.544Z,2.70
2017-12-27T19:46:29.156Z,6.97
2017-12-27T19:48:57.540Z,8.90
2017-12-27T19:51:26.195Z,2.40
2017-12-27T19:53:54.210Z,4.57
2017-12-27T19:56:23.113Z,2.70
2017-12-27T19:58:51.930Z,3.23
2017-12-27T20:01:20.466Z,4.00
2017-12-27T20:03:48.868Z,2.77
2017-12-27T20:06:16.843Z,3.00
2017-12-27T20:08:45.520Z,3.30
2017-12-27T20:11:14.010Z,3.50
2017-12-27T20:13:41.675Z,3.80
2017-12-27T20:16:09.299Z,2.50
2017-12-27T20:18:36.937Z,3.73
2017-12-27T20:21:04.677Z,5.60
2017-12-27T20:23:33.152Z,2.73
2017-12-27T20:26:01.229Z,4.00
2017-12-27T20:28:30.002Z,4.37
2017-12-27T20:30:57.979Z,4.40
2017-12-27T20:33:26.525Z,3.63
2017-12-27T20:35:54.259Z,5.23
2017-12-27T20:38:22.074Z,6.33
2017-12-27T20:40:50.498Z,5.00
2017-12-27T20:43:18.371Z,5.70
2017-12-27T20:45:46.157Z,2.87
2017-12-27T20:48:13.807Z,5.07
2017-12-27T20:50:41.847Z,7.73
2017-12-27T20:53:10.615Z,3.60
2017-12-27T20:55:39.133Z,4.97
2017-12-27T20:58:06.797Z,4.10
2017-12-27T21:00:34.528Z,4.40
2017-12-27T21:03:03.448Z,5.83
2017-12-27T21:05:32.129Z,5.17
2017-12-27T21:08:00.106Z,4.37
2017-12-27T21:10:28.622Z,4.00
2017-12-27T21:12:56.336Z,4.07
2017-12-27T21:15:25.147Z,5.80
2017-12-27T21:17:53.667Z,6.20
2017-12-27T21:20:21.356Z,4.40
2017-12-27T21:22:48.980Z,2.77
2017-12-27T21:25:16.667Z,3.93
2017-12-27T21:27:44.702Z,4.67
2017-12-27T21:30:13.235Z,6.53
2017-12-27T21:32:41.138Z,4.47
2017-12-27T21:35:08.821Z,6.57
2017-12-27T21:37:36.483Z,3.97
2017-12-27T21:40:04.145Z,6.10
2017-12-27T21:42:31.821Z,4.70
2017-12-27T21:44:59.697Z,7.17
2017-12-27T21:47:27.412Z,4.00
2017-12-27T21:49:56.119Z,5.20
2017-12-27T21:52:23.839Z,5.20
2017-12-27T21:54:51.700Z,3.60
2017-12-27T21:57:19.768Z,2.57
2017-12-27T21:59:48.395Z,7.43
2017-12-27T22:02:17.086Z,5.27
2017-12-27T22:04:45.532Z,6.20
2017-12-27T22:07:13.517Z,5.10
2017-12-27T22:09:41.331Z,5.47
2017-12-27T22:12:09.154Z,4.80
2017-12-27T22:14:37.024Z,6.47
2017-12-27T22:17:05.762Z,9.10
2017-12-27T22:19:34.387Z,5.67
2017-12-27T22:22:02.344Z,3.33
2017-12-27T22:24:30.018Z,3.23
2017-12-27T22:26:57.696Z,3.90
2017-12-27T22:29:25.617Z,4.37
2017-12-27T22:31:53.489Z,3.93
2017-12-27T22:34:21.181Z,7.53
2017-12-27T22:36:48.841Z,5.63
2017-12-27T22:39:16.578Z,4.40
2017-12-27T22:41:45.242Z,5.83
2017-12-27T22:44:13.740Z,6.23
2017-12-27T22:46:42.674Z,3.80
2017-12-27T22:49:10.399Z,5.23
2017-12-27T22:51:38.162Z,7.10
2017-12-27T22:54:05.832Z,4.77
2017-12-27T22:56:33.479Z,9.47
2017-12-27T22:59:02.019Z,6.33
2017-12-27T23:01:29.800Z,2.93
2017-12-27T23:03:57.706Z,4.53
2017-12-27T23:06:25.472Z,3.07
2017-12-27T23:08:54.368Z,2.13
2017-12-27T23:11:22.014Z,4.00
2017-12-27T23:13:51.661Z,10.23
2017-12-27T23:16:19.378Z,13.10
2017-12-27T23:18:47.831Z,6.00
2017-12-27T23:21:15.466Z,4.97
2017-12-27T23:23:43.146Z,5.87
2017-12-27T23:26:10.883Z,5.43
2017-12-27T23:28:39.377Z,5.40
2017-12-27T23:31:07.245Z,5.67
2017-12-27T23:33:35.309Z,7.47
2017-12-27T23:36:03.965Z,3.37
2017-12-27T23:38:31.762Z,4.70
2017-12-27T23:40:59.476Z,4.53
2017-12-27T23:43:27.126Z,2.90
2017-12-27T23:45:54.896Z,3.43
2017-12-27T23:48:22.780Z,2.40
2017-12-27T23:50:50.800Z,4.23
2017-12-27T23:53:19.711Z,6.73
2017-12-27T23:55:47.460Z,2.33
2017-12-27T23:58:15.302Z,3.03
